createdAt,value
2023-03-29T00:02:07.417Z,61.60
2023-03-29T00:04:34.760Z,61.59
2023-03-29T00:07:06.072Z,61.61
2023-03-29T00:09:33.501Z,61.57
2023-03-29T00:12:01.602Z,61.62
2023-03-29T00:14:30.920Z,61.65
2023-03-29T00:16:58.593Z,61.65
2023-03-29T00:19:25.608Z,61.66
2023-03-29T00:21:52.532Z,61.65
2023-03-29T00:24:21.148Z,61.65
2023-03-29T00:26:48.431Z,61.64
2023-03-29T00:29:15.660Z,61.63
2023-03-29T00:31:44.506Z,61.60
2023-03-29T00:34:11.741Z,61.57
2023-03-29T00:36:40.565Z,61.53
2023-03-29T00:39:07.617Z,61.64
2023-03-29T00:41:34.503Z,61.67
2023-03-29T00:44:03.958Z,61.77
2023-03-29T00:46:32.030Z,61.75
2023-03-29T00:49:03.958Z,61.87
2023-03-29T00:51:34.378Z,61.93
2023-03-29T00:54:04.150Z,61.81
2023-03-29T00:56:39.919Z,61.84
2023-03-29T00:59:27.954Z,61.85
2023-03-29T01:02:02.243Z,61.82
2023-03-29T01:04:36.958Z,61.96
2023-03-29T01:07:30.864Z,61.92
2023-03-29T01:10:19.537Z,61.92
2023-03-29T01:12:51.763Z,61.88
2023-03-29T01:15:22.426Z,61.87
2023-03-29T01:17:50.997Z,61.85
2023-03-29T01:20:23.947Z,61.86
2023-03-29T01:23:21.363Z,61.96
2023-03-29T01:25:54.166Z,61.90
2023-03-29T01:28:35.382Z,61.70
2023-03-29T01:31:16.075Z,61.80
2023-03-29T01:33:47.589Z,61.93
2023-03-29T01:36:20.264Z,61.93
2023-03-29T01:38:52.873Z,62.39
2023-03-29T01:41:20.255Z,62.17
2023-03-29T01:44:02.312Z,62.56
2023-03-29T01:46:38.551Z,62.39
2023-03-29T01:49:23.487Z,62.56
2023-03-29T01:52:01.594Z,62.47
2023-03-29T01:54:33.765Z,62.74
2023-03-29T01:57:04.870Z,62.82
2023-03-29T01:59:37.024Z,62.82
2023-03-29T02:02:08.322Z,62.74
2023-03-29T02:04:40.055Z,62.55
2023-03-29T02:07:09.170Z,62.60
2023-03-29T02:09:38.474Z,63.10
2023-03-29T02:12:07.308Z,63.05
2023-03-29T02:14:34.121Z,62.85
2023-03-29T02:17:30.638Z,62.92
2023-03-29T02:20:14.696Z,62.97
2023-03-29T02:23:04.704Z,62.78
2023-03-29T02:25:32.639Z,62.80
2023-03-29T02:27:59.986Z,62.89
2023-03-29T02:30:42.361Z,62.86
2023-03-29T02:33:24.049Z,62.84
2023-03-29T02:35:59.240Z,62.98
2023-03-29T02:38:27.898Z,63.05
2023-03-29T02:40:56.834Z,63.48
2023-03-29T02:43:26.021Z,63.82
2023-03-29T02:45:53.861Z,63.66
2023-03-29T02:48:23.592Z,63.58
2023-03-29T02:50:55.871Z,63.48
2023-03-29T02:53:29.018Z,63.21
2023-03-29T02:55:55.992Z,63.29
2023-03-29T02:58:26.661Z,63.40
2023-03-29T03:00:53.962Z,63.35
2023-03-29T03:03:20.916Z,63.32
2023-03-29T03:05:49.076Z,63.32
2023-03-29T03:08:15.892Z,63.41
2023-03-29T03:10:43.183Z,63.46
2023-03-29T03:13:09.992Z,63.43
2023-03-29T03:15:37.388Z,63.58
2023-03-29T03:18:04.506Z,63.58
2023-03-29T03:20:31.336Z,63.49
2023-03-29T03:22:58.606Z,63.58
2023-03-29T03:25:25.450Z,63.84
2023-03-29T03:27:52.418Z,63.70
2023-03-29T03:30:19.397Z,63.79
2023-03-29T03:32:46.400Z,63.95
2023-03-29T03:35:13.798Z,63.93
2023-03-29T03:37:40.956Z,63.99
2023-03-29T03:40:09.333Z,63.61
2023-03-29T03:42:36.076Z,63.50
2023-03-29T03:45:03.042Z,63.47
2023-03-29T03:47:30.835Z,63.23
2023-03-29T03:49:57.596Z,63.22
2023-03-29T03:52:24.636Z,63.19
2023-03-29T03:54:51.814Z,63.33
2023-03-29T03:57:18.828Z,63.65
2023-03-29T03:59:45.643Z,63.56
2023-03-29T04:02:12.397Z,63.49
2023-03-29T04:04:40.610Z,63.90
2023-03-29T04:07:07.489Z,63.76
2023-03-29T04:09:34.628Z,63.89
2023-03-29T04:12:01.726Z,63.87
2023-03-29T04:14:28.691Z,63.65
2023-03-29T04:16:55.756Z,63.64
2023-03-29T04:19:23.141Z,63.77
2023-03-29T04:21:51.295Z,63.69
2023-03-29T04:24:18.247Z,63.99
2023-03-29T04:26:45.154Z,63.90
2023-03-29T04:29:11.928Z,63.99
2023-03-29T04:31:38.869Z,64.48
2023-03-29T04:34:05.634Z,64.35
2023-03-29T04:36:32.823Z,64.71
2023-03-29T04:39:01.744Z,64.64
2023-03-29T04:41:29.069Z,64.82
2023-03-29T04:43:56.365Z,64.72
2023-03-29T04:46:26.656Z,64.54
2023-03-29T04:48:54.225Z,64.25
2023-03-29T04:51:22.443Z,64.50
2023-03-29T04:53:53.151Z,64.31
2023-03-29T04:56:19.994Z,64.29
2023-03-29T04:58:46.856Z,64.17
2023-03-29T05:01:13.646Z,63.85
2023-03-29T05:03:40.405Z,63.75
2023-03-29T05:06:09.978Z,63.52
2023-03-29T05:08:39.317Z,63.29
2023-03-29T05:11:08.305Z,63.75
2023-03-29T05:13:35.511Z,63.71
2023-03-29T05:16:02.775Z,63.46
2023-03-29T05:18:30.198Z,63.66
2023-03-29T05:20:58.626Z,63.40
2023-03-29T05:23:26.580Z,63.33
2023-03-29T05:25:53.743Z,63.22
2023-03-29T05:28:20.838Z,63.24
2023-03-29T05:30:48.584Z,63.29
2023-03-29T05:33:15.384Z,62.99
2023-03-29T05:35:42.252Z,62.83
2023-03-29T05:38:09.072Z,63.00
2023-03-29T05:40:36.000Z,62.64
2023-03-29T05:43:03.112Z,62.10
2023-03-29T05:45:30.198Z,61.95
2023-03-29T05:47:57.756Z,61.75
2023-03-29T05:50:24.863Z,61.72
2023-03-29T05:52:51.706Z,61.90
2023-03-29T05:55:18.573Z,62.00
2023-03-29T05:57:45.401Z,62.07
2023-03-29T06:00:25.648Z,61.62
2023-03-29T06:02:52.850Z,61.40
2023-03-29T06:05:20.200Z,61.15
2023-03-29T06:07:48.875Z,61.09
2023-03-29T06:10:15.927Z,61.11
2023-03-29T06:12:42.672Z,60.92
2023-03-29T06:15:10.317Z,60.97
2023-03-29T06:17:37.159Z,61.25
2023-03-29T06:20:09.161Z,61.28
2023-03-29T06:22:36.685Z,61.46
2023-03-29T06:25:04.788Z,61.66
2023-03-29T06:27:32.915Z,61.73
2023-03-29T06:30:00.738Z,61.21
2023-03-29T06:32:28.179Z,60.95
2023-03-29T06:34:55.461Z,60.80
2023-03-29T06:37:23.341Z,60.60
2023-03-29T06:39:53.896Z,60.52
2023-03-29T06:42:21.803Z,60.41
2023-03-29T06:44:49.686Z,60.26
2023-03-29T06:47:17.357Z,60.15
2023-03-29T06:49:44.552Z,60.04
2023-03-29T06:52:11.553Z,60.08
2023-03-29T06:54:38.956Z,60.13
2023-03-29T06:57:05.810Z,60.19
2023-03-29T06:59:33.444Z,60.16
2023-03-29T07:02:00.321Z,60.11
2023-03-29T07:04:27.141Z,60.14
2023-03-29T07:07:01.736Z,60.00
2023-03-29T07:09:30.400Z,59.84
2023-03-29T07:11:58.243Z,59.71
2023-03-29T07:14:28.668Z,59.58
2023-03-29T07:16:56.888Z,59.45
2023-03-29T07:19:25.332Z,59.34
2023-03-29T07:21:53.410Z,59.22
2023-03-29T07:24:21.433Z,59.06
2023-03-29T07:27:00.226Z,58.93
2023-03-29T07:29:30.531Z,58.79
2023-03-29T07:31:57.345Z,58.57
2023-03-29T07:34:24.483Z,58.37
2023-03-29T07:36:51.689Z,58.23
2023-03-29T07:39:18.864Z,58.02
2023-03-29T07:41:45.618Z,57.77
2023-03-29T07:44:12.486Z,57.58
2023-03-29T07:46:39.258Z,57.37
2023-03-29T07:49:08.203Z,57.20
2023-03-29T07:51:36.676Z,56.99
2023-03-29T07:54:03.893Z,56.79
2023-03-29T07:56:30.676Z,56.56
2023-03-29T07:58:57.643Z,56.37
2023-03-29T08:01:24.878Z,56.22
2023-03-29T08:03:52.260Z,56.07
2023-03-29T08:06:19.220Z,55.93
2023-03-29T08:08:46.354Z,55.84
2023-03-29T08:11:14.221Z,55.74
2023-03-29T08:13:41.038Z,55.66
2023-03-29T08:16:08.980Z,55.57
2023-03-29T08:18:35.796Z,55.59
2023-03-29T08:21:03.050Z,55.54
2023-03-29T08:23:30.052Z,55.45
2023-03-29T08:25:56.792Z,55.21
2023-03-29T08:28:23.575Z,54.94
2023-03-29T08:30:50.401Z,54.69
2023-03-29T08:33:17.332Z,54.41
2023-03-29T08:35:44.185Z,54.27
2023-03-29T08:38:11.302Z,54.17
2023-03-29T08:40:38.337Z,54.00
2023-03-29T08:43:26.590Z,53.93
2023-03-29T08:46:00.154Z,53.79
2023-03-29T08:48:44.183Z,53.56
2023-03-29T08:51:16.957Z,53.31
2023-03-29T08:53:53.960Z,53.16
2023-03-29T08:56:27.098Z,52.96
2023-03-29T08:58:55.962Z,52.80
2023-03-29T09:01:24.327Z,52.63
2023-03-29T09:03:54.050Z,52.47
2023-03-29T09:06:22.149Z,52.18
2023-03-29T09:08:51.116Z,52.03
2023-03-29T09:11:23.628Z,51.89
2023-03-29T09:14:19.421Z,51.77
2023-03-29T09:17:04.216Z,51.71
2023-03-29T09:19:40.062Z,51.54
2023-03-29T09:22:12.226Z,51.44
2023-03-29T09:25:00.947Z,51.39
2023-03-29T09:27:47.693Z,51.40
2023-03-29T09:30:19.325Z,51.35
2023-03-29T09:33:15.510Z,51.31
2023-03-29T09:35:53.577Z,51.36
2023-03-29T09:38:22.196Z,51.34
2023-03-29T09:40:56.809Z,51.34
2023-03-29T09:43:34.263Z,51.33
2023-03-29T09:46:05.018Z,51.26
2023-03-29T09:48:38.426Z,51.21
2023-03-29T09:51:07.953Z,51.21
2023-03-29T09:53:34.944Z,51.13
2023-03-29T09:56:02.396Z,51.12
2023-03-29T09:58:31.784Z,51.08
2023-03-29T10:01:00.742Z,51.16
2023-03-29T10:03:30.118Z,51.09
2023-03-29T10:06:00.058Z,51.14
2023-03-29T10:08:35.851Z,51.06
2023-03-29T10:11:23.520Z,51.03
2023-03-29T10:13:57.468Z,51.08
2023-03-29T10:16:37.038Z,51.02
2023-03-29T10:19:15.442Z,51.01
2023-03-29T10:21:42.427Z,51.01
2023-03-29T10:24:10.312Z,51.03
2023-03-29T10:26:39.078Z,51.02
2023-03-29T10:29:07.528Z,51.23
2023-03-29T10:31:38.194Z,51.15
2023-03-29T10:34:06.994Z,50.96
2023-03-29T10:36:34.426Z,50.84
2023-03-29T10:39:06.022Z,50.83
2023-03-29T10:41:35.185Z,50.84
2023-03-29T10:44:03.599Z,50.97
2023-03-29T10:46:33.646Z,50.92
2023-03-29T10:49:05.945Z,50.99
2023-03-29T10:51:34.264Z,50.92
2023-03-29T10:54:02.386Z,50.95
2023-03-29T10:56:31.794Z,50.83
2023-03-29T10:59:22.810Z,50.68
2023-03-29T11:02:17.759Z,50.53
2023-03-29T11:04:49.234Z,50.19
2023-03-29T11:07:37.975Z,50.08
2023-03-29T11:10:24.866Z,50.06
2023-03-29T11:13:29.017Z,50.03
2023-03-29T11:16:09.669Z,50.01
2023-03-29T11:18:45.442Z,49.98
2023-03-29T11:21:36.153Z,50.02
2023-03-29T11:24:17.835Z,50.02
2023-03-29T11:27:23.233Z,50.03
2023-03-29T11:29:49.915Z,49.98
2023-03-29T11:32:31.672Z,49.88
2023-03-29T11:35:07.288Z,49.76
2023-03-29T11:37:51.225Z,49.67
2023-03-29T11:40:55.466Z,49.83
2023-03-29T11:43:34.201Z,49.62
2023-03-29T11:46:04.080Z,49.64
2023-03-29T11:48:39.653Z,49.51
2023-03-29T11:51:13.301Z,49.70
2023-03-29T11:54:03.114Z,49.59
2023-03-29T11:56:36.141Z,49.72
2023-03-29T11:59:13.653Z,49.63
2023-03-29T12:01:48.157Z,49.83
2023-03-29T12:04:38.647Z,49.76
2023-03-29T12:07:42.350Z,49.76
2023-03-29T12:10:17.898Z,49.65
2023-03-29T12:13:03.303Z,49.82
2023-03-29T12:15:35.247Z,49.77
2023-03-29T12:18:22.991Z,49.78
2023-03-29T12:21:02.001Z,49.29
2023-03-29T12:23:31.966Z,49.28
2023-03-29T12:26:29.361Z,49.28
2023-03-29T12:29:05.367Z,49.20
2023-03-29T12:31:32.649Z,48.60
2023-03-29T12:34:05.346Z,48.70
2023-03-29T12:37:17.295Z,49.01
2023-03-29T12:39:44.690Z,48.92
2023-03-29T12:42:21.079Z,48.96
2023-03-29T12:44:58.783Z,49.05
2023-03-29T12:47:37.465Z,49.20
2023-03-29T12:50:04.830Z,49.36
2023-03-29T12:52:34.652Z,49.43
2023-03-29T12:55:17.841Z,49.50
2023-03-29T12:57:57.718Z,49.45
2023-03-29T13:00:42.791Z,49.44
2023-03-29T13:03:30.243Z,49.36
2023-03-29T13:06:02.760Z,49.53
2023-03-29T13:08:41.162Z,49.57
2023-03-29T13:11:23.922Z,49.61
2023-03-29T13:13:52.340Z,49.78
2023-03-29T13:16:33.020Z,49.76
2023-03-29T13:19:31.048Z,49.72
2023-03-29T13:22:16.721Z,49.91
2023-03-29T13:24:55.641Z,49.90
2023-03-29T13:27:45.476Z,49.95
2023-03-29T13:30:29.933Z,49.78
2023-03-29T13:33:18.398Z,49.75
2023-03-29T13:36:08.707Z,49.71
2023-03-29T13:38:48.870Z,49.67
2023-03-29T13:41:24.646Z,49.97
2023-03-29T13:43:56.077Z,50.03
2023-03-29T13:46:41.421Z,50.12
2023-03-29T13:49:29.474Z,49.92
2023-03-29T13:52:13.336Z,49.98
2023-03-29T13:54:54.831Z,50.13
2023-03-29T13:57:43.657Z,50.31
2023-03-29T14:00:28.688Z,50.30
2023-03-29T14:03:01.486Z,50.40
2023-03-29T14:05:44.377Z,50.43
2023-03-29T14:08:21.892Z,50.29
2023-03-29T14:10:49.236Z,50.25
2023-03-29T14:13:20.475Z,50.27
2023-03-29T14:15:57.330Z,50.21
2023-03-29T14:18:27.637Z,50.18
2023-03-29T14:20:55.717Z,50.11
2023-03-29T14:23:30.279Z,50.17
2023-03-29T14:26:07.831Z,50.06
2023-03-29T14:28:34.603Z,50.20
2023-03-29T14:31:01.654Z,50.25
2023-03-29T14:33:38.111Z,50.27
2023-03-29T14:36:05.840Z,50.25
2023-03-29T14:38:36.540Z,50.22
2023-03-29T14:41:03.697Z,50.09
2023-03-29T14:43:32.203Z,50.18
2023-03-29T14:46:07.609Z,50.19
2023-03-29T14:48:35.717Z,50.17
2023-03-29T14:51:02.996Z,50.26
2023-03-29T14:53:32.353Z,50.25
2023-03-29T14:55:59.542Z,50.31
2023-03-29T14:58:32.803Z,50.31
2023-03-29T15:01:14.057Z,50.44
2023-03-29T15:03:44.662Z,50.45
2023-03-29T15:06:13.255Z,50.53
2023-03-29T15:08:50.825Z,50.52
2023-03-29T15:11:27.978Z,50.48
2023-03-29T15:14:02.535Z,50.42
2023-03-29T15:16:30.609Z,50.38
2023-03-29T15:18:58.229Z,50.32
2023-03-29T15:21:28.777Z,50.34
2023-03-29T15:23:58.397Z,50.34
2023-03-29T15:26:27.768Z,50.38
2023-03-29T15:29:25.950Z,50.30
2023-03-29T15:31:57.119Z,50.31
2023-03-29T15:34:31.899Z,50.26
2023-03-29T15:36:59.509Z,50.32
2023-03-29T15:39:27.950Z,50.26
2023-03-29T15:41:56.880Z,50.31
2023-03-29T15:44:29.402Z,50.29
2023-03-29T15:46:57.806Z,50.29
2023-03-29T15:49:25.145Z,50.32
2023-03-29T15:51:55.888Z,50.25
2023-03-29T15:54:24.770Z,50.34
2023-03-29T15:57:14.935Z,50.40
2023-03-29T15:59:43.544Z,50.19
2023-03-29T16:02:17.835Z,50.32
2023-03-29T16:04:44.709Z,50.32
2023-03-29T16:07:15.332Z,50.40
2023-03-29T16:09:42.802Z,50.44
2023-03-29T16:12:10.446Z,50.44
2023-03-29T16:14:37.234Z,50.38
2023-03-29T16:17:04.768Z,50.38
2023-03-29T16:19:33.184Z,50.37
2023-03-29T16:22:02.954Z,50.34
2023-03-29T16:24:32.177Z,50.27
2023-03-29T16:26:59.966Z,50.09
2023-03-29T16:29:27.531Z,50.20
2023-03-29T16:31:55.011Z,50.08
2023-03-29T16:34:22.837Z,50.20
2023-03-29T16:36:50.187Z,50.33
2023-03-29T16:39:18.304Z,50.29
2023-03-29T16:41:48.450Z,50.27
2023-03-29T16:44:23.782Z,50.30
2023-03-29T16:46:54.146Z,50.33
2023-03-29T16:49:21.641Z,50.45
2023-03-29T16:51:48.615Z,50.47
2023-03-29T16:54:19.658Z,50.50
2023-03-29T16:56:46.945Z,50.44
2023-03-29T16:59:14.215Z,50.47
2023-03-29T17:01:41.313Z,50.49
2023-03-29T17:04:09.341Z,50.56
2023-03-29T17:06:36.860Z,50.64
2023-03-29T17:09:05.304Z,50.68
2023-03-29T17:11:32.349Z,50.66
2023-03-29T17:14:00.128Z,50.67
2023-03-29T17:16:28.951Z,50.67
2023-03-29T17:19:00.600Z,50.62
2023-03-29T17:21:29.618Z,50.67
2023-03-29T17:23:57.024Z,50.78
2023-03-29T17:26:23.898Z,50.70
2023-03-29T17:28:51.007Z,50.67
2023-03-29T17:31:19.495Z,50.80
2023-03-29T17:33:47.561Z,50.76
2023-03-29T17:36:14.946Z,50.55
2023-03-29T17:38:43.054Z,50.74
2023-03-29T17:41:11.525Z,50.87
2023-03-29T17:43:38.776Z,51.03
2023-03-29T17:46:06.559Z,50.70
2023-03-29T17:48:33.807Z,50.75
2023-03-29T17:51:01.349Z,50.86
2023-03-29T17:53:28.601Z,50.77
2023-03-29T17:55:55.953Z,50.92
2023-03-29T17:58:24.883Z,51.03
2023-03-29T18:00:52.146Z,50.96
2023-03-29T18:03:19.961Z,51.04
2023-03-29T18:05:47.367Z,51.18
2023-03-29T18:08:15.428Z,51.34
2023-03-29T18:10:43.666Z,51.19
2023-03-29T18:13:14.005Z,51.31
2023-03-29T18:15:45.773Z,51.48
2023-03-29T18:18:13.352Z,51.71
2023-03-29T18:20:40.459Z,51.77
2023-03-29T18:23:07.566Z,51.65
2023-03-29T18:25:35.075Z,51.49
2023-03-29T18:28:02.817Z,51.65
2023-03-29T18:30:30.979Z,51.50
2023-03-29T18:32:58.903Z,51.55
2023-03-29T18:35:26.725Z,51.60
2023-03-29T18:37:55.373Z,51.36
2023-03-29T18:40:25.083Z,51.30
2023-03-29T18:42:52.926Z,51.21
2023-03-29T18:45:21.479Z,51.34
2023-03-29T18:47:52.867Z,51.34
2023-03-29T18:50:20.691Z,51.31
2023-03-29T18:52:48.839Z,51.47
2023-03-29T18:55:16.305Z,51.40
2023-03-29T18:57:44.399Z,51.45
2023-03-29T19:00:15.254Z,51.54
2023-03-29T19:02:42.647Z,51.51
2023-03-29T19:05:10.981Z,51.40
2023-03-29T19:07:38.718Z,51.36
2023-03-29T19:10:09.061Z,51.40
2023-03-29T19:12:36.419Z,51.35
2023-03-29T19:15:04.002Z,51.45
2023-03-29T19:17:31.346Z,51.44
2023-03-29T19:19:59.221Z,51.41
2023-03-29T19:22:27.321Z,51.35
2023-03-29T19:24:54.932Z,51.37
2023-03-29T19:27:23.770Z,51.47
2023-03-29T19:29:51.601Z,51.46
2023-03-29T19:32:19.220Z,51.48
2023-03-29T19:34:47.708Z,51.50
2023-03-29T19:37:16.307Z,51.55
2023-03-29T19:39:45.583Z,51.49
2023-03-29T19:42:13.562Z,51.43
2023-03-29T19:44:41.487Z,51.33
2023-03-29T19:47:08.763Z,51.43
2023-03-29T19:49:39.019Z,51.41
2023-03-29T19:52:06.904Z,51.45
2023-03-29T19:54:34.405Z,51.49
2023-03-29T19:57:02.327Z,51.53
2023-03-29T19:59:31.306Z,51.57
2023-03-29T20:01:58.335Z,51.59
2023-03-29T20:04:29.004Z,51.53
2023-03-29T20:06:57.711Z,51.65
2023-03-29T20:09:24.571Z,51.55
2023-03-29T20:11:51.523Z,51.47
2023-03-29T20:14:18.910Z,51.31
2023-03-29T20:16:46.312Z,51.22
2023-03-29T20:19:17.976Z,51.48
2023-03-29T20:21:44.902Z,51.29
2023-03-29T20:24:12.000Z,51.16
2023-03-29T20:26:39.098Z,51.16
2023-03-29T20:29:06.333Z,50.86
2023-03-29T20:31:33.263Z,50.93
2023-03-29T20:34:00.321Z,50.92
2023-03-29T20:36:30.790Z,50.83
2023-03-29T20:38:59.376Z,51.03
2023-03-29T20:41:26.339Z,51.07
2023-03-29T20:43:58.519Z,51.01
2023-03-29T20:46:35.757Z,50.80
2023-03-29T20:49:05.812Z,50.70
2023-03-29T20:51:33.083Z,50.76
2023-03-29T20:54:04.952Z,50.67
2023-03-29T20:56:33.962Z,50.51
2023-03-29T20:59:01.588Z,50.31
2023-03-29T21:01:30.195Z,50.13
2023-03-29T21:03:57.135Z,50.38
2023-03-29T21:06:24.474Z,50.35
2023-03-29T21:08:52.578Z,50.38
2023-03-29T21:11:21.067Z,50.44
2023-03-29T21:13:47.838Z,50.49
2023-03-29T21:16:14.685Z,50.54
2023-03-29T21:18:41.710Z,50.54
2023-03-29T21:21:10.488Z,50.47
2023-03-29T21:23:38.058Z,50.32
2023-03-29T21:26:07.352Z,50.32
2023-03-29T21:28:34.800Z,50.15
2023-03-29T21:31:05.849Z,50.12
2023-03-29T21:33:32.934Z,50.15
2023-03-29T21:36:00.677Z,50.32
2023-03-29T21:38:28.151Z,50.19
2023-03-29T21:40:54.882Z,50.17
2023-03-29T21:43:21.753Z,50.08
2023-03-29T21:45:49.932Z,50.21
2023-03-29T21:48:17.753Z,49.93
2023-03-29T21:50:48.183Z,50.01
2023-03-29T21:53:14.906Z,50.17
2023-03-29T21:55:41.698Z,50.07
2023-03-29T21:58:08.501Z,49.81
2023-03-29T22:00:35.838Z,49.79
2023-03-29T22:03:02.651Z,50.03
2023-03-29T22:05:29.505Z,49.91
2023-03-29T22:07:58.778Z,49.80
2023-03-29T22:10:25.590Z,49.83
2023-03-29T22:12:52.662Z,50.02
2023-03-29T22:15:22.493Z,49.86
2023-03-29T22:17:50.453Z,49.83
2023-03-29T22:20:18.567Z,49.83
2023-03-29T22:22:50.463Z,50.00
2023-03-29T22:25:19.245Z,50.12
2023-03-29T22:27:47.908Z,50.03
2023-03-29T22:30:16.209Z,49.88
2023-03-29T22:32:43.327Z,49.94
2023-03-29T22:35:10.834Z,49.91
2023-03-29T22:37:42.065Z,49.92
2023-03-29T22:40:11.029Z,49.90
2023-03-29T22:42:38.173Z,49.97
2023-03-29T22:45:06.547Z,49.97
2023-03-29T22:47:34.166Z,49.97
2023-03-29T22:50:01.218Z,50.04
2023-03-29T22:52:28.107Z,49.99
2023-03-29T22:54:54.888Z,49.95
2023-03-29T22:57:21.682Z,50.12
2023-03-29T22:59:48.556Z,50.09
2023-03-29T23:02:15.600Z,50.07
2023-03-29T23:04:42.497Z,50.10
2023-03-29T23:07:09.293Z,50.06
2023-03-29T23:09:36.047Z,50.08
2023-03-29T23:12:02.806Z,50.07
2023-03-29T23:14:29.561Z,50.12
2023-03-29T23:16:56.333Z,50.33
2023-03-29T23:19:23.078Z,50.37
2023-03-29T23:24:34.089Z,50.48
2023-03-29T23:27:01.301Z,50.32
2023-03-29T23:29:28.189Z,50.27
2023-03-29T23:31:56.932Z,50.39
2023-03-29T23:34:23.749Z,50.55
2023-03-29T23:36:50.594Z,50.76
2023-03-29T23:39:17.450Z,50.79
2023-03-29T23:41:44.163Z,50.91
2023-03-29T23:44:10.961Z,50.98
2023-03-29T23:46:37.748Z,51.10
2023-03-29T23:49:04.670Z,51.62
2023-03-29T23:51:31.374Z,51.66
2023-03-29T23:53:58.124Z,51.77
2023-03-29T23:56:24.988Z,51.82
2023-03-29T23:58:51.853Z,51.75
